sensor_id;sensor_type;location;lat;lon;timestamp;P1;durP1;ratioP1;P2;durP2;ratioP2
151;SDS011;68;48.792;9.164;2022-08-30T00:00:18;3.57;;;2.87;;
151;SDS011;68;48.792;9.164;2022-08-30T00:03:04;3.77;;;2.60;;
151;SDS011;68;48.792;9.164;2022-08-30T00:05:32;4.80;;;2.87;;
151;SDS011;68;48.792;9.164;2022-08-30T00:08:00;5.53;;;2.87;;
151;SDS011;68;48.792;9.164;2022-08-30T00:10:27;4.40;;;2.90;;
151;SDS011;68;48.792;9.164;2022-08-30T00:12:54;4.73;;;3.20;;
151;SDS011;68;48.792;9.164;2022-08-30T00:15:23;4.30;;;3.20;;
151;SDS011;68;48.792;9.164;2022-08-30T00:17:50;4.47;;;3.27;;
151;SDS011;68;48.792;9.164;2022-08-30T00:20:19;5.20;;;3.20;;
151;SDS011;68;48.792;9.164;2022-08-30T00:22:50;4.57;;;2.80;;
151;SDS011;68;48.792;9.164;2022-08-30T00:25:17;4.00;;;2.80;;
151;SDS011;68;48.792;9.164;2022-08-30T00:27:44;4.50;;;3.00;;
151;SDS011;68;48.792;9.164;2022-08-30T00:30:11;7.63;;;3.50;;
151;SDS011;68;48.792;9.164;2022-08-30T00:32:41;3.33;;;2.40;;
151;SDS011;68;48.792;9.164;2022-08-30T00:35:08;4.10;;;2.80;;
151;SDS011;68;48.792;9.164;2022-08-30T00:37:36;5.63;;;3.83;;
151;SDS011;68;48.792;9.164;2022-08-30T00:40:04;3.63;;;2.80;;
151;SDS011;68;48.792;9.164;2022-08-30T00:42:33;3.80;;;2.77;;
151;SDS011;68;48.792;9.164;2022-08-30T00:45:00;3.53;;;2.47;;
151;SDS011;68;48.792;9.164;2022-08-30T00:47:38;6.67;;;3.50;;
151;SDS011;68;48.792;9.164;2022-08-30T00:50:07;4.60;;;3.33;;
151;SDS011;68;48.792;9.164;2022-08-30T00:52:35;3.70;;;2.70;;
151;SDS011;68;48.792;9.164;2022-08-30T00:55:03;3.90;;;2.80;;
151;SDS011;68;48.792;9.164;2022-08-30T00:57:31;5.27;;;3.20;;
151;SDS011;68;48.792;9.164;2022-08-30T01:00:00;5.70;;;3.40;;
151;SDS011;68;48.792;9.164;2022-08-30T01:02:30;4.77;;;3.37;;
151;SDS011;68;48.792;9.164;2022-08-30T01:04:59;4.00;;;3.17;;
151;SDS011;68;48.792;9.164;2022-08-30T01:07:27;4.80;;;3.07;;
151;SDS011;68;48.792;9.164;2022-08-30T01:09:54;4.33;;;3.30;;
151;SDS011;68;48.792;9.164;2022-08-30T01:12:21;4.73;;;3.10;;
151;SDS011;68;48.792;9.164;2022-08-30T01:14:48;3.60;;;3.00;;
151;SDS011;68;48.792;9.164;2022-08-30T01:17:15;4.20;;;3.00;;
151;SDS011;68;48.792;9.164;2022-08-30T01:19:44;6.43;;;3.23;;
151;SDS011;68;48.792;9.164;2022-08-30T01:22:20;5.80;;;3.50;;
151;SDS011;68;48.792;9.164;2022-08-30T01:24:55;4.80;;;3.13;;
151;SDS011;68;48.792;9.164;2022-08-30T01:27:24;4.73;;;3.20;;
151;SDS011;68;48.792;9.164;2022-08-30T01:29:53;5.57;;;3.50;;
151;SDS011;68;48.792;9.164;2022-08-30T01:32:22;4.03;;;3.13;;
151;SDS011;68;48.792;9.164;2022-08-30T01:34:50;5.53;;;3.40;;
151;SDS011;68;48.792;9.164;2022-08-30T01:37:19;4.00;;;2.87;;
151;SDS011;68;48.792;9.164;2022-08-30T01:39:50;3.10;;;2.53;;
151;SDS011;68;48.792;9.164;2022-08-30T01:42:18;4.60;;;3.10;;
151;SDS011;68;48.792;9.164;2022-08-30T01:44:45;4.20;;;3.40;;
151;SDS011;68;48.792;9.164;2022-08-30T01:47:13;4.60;;;3.20;;
151;SDS011;68;48.792;9.164;2022-08-30T01:49:42;6.07;;;3.30;;
151;SDS011;68;48.792;9.164;2022-08-30T01:52:09;4.53;;;3.10;;
151;SDS011;68;48.792;9.164;2022-08-30T01:54:37;4.90;;;3.17;;
151;SDS011;68;48.792;9.164;2022-08-30T01:57:05;5.43;;;3.50;;
151;SDS011;68;48.792;9.164;2022-08-30T01:59:35;5.17;;;3.10;;
151;SDS011;68;48.792;9.164;2022-08-30T02:02:03;4.77;;;3.23;;
151;SDS011;68;48.792;9.164;2022-08-30T02:04:30;8.53;;;2.90;;
151;SDS011;68;48.792;9.164;2022-08-30T02:06:57;4.40;;;3.17;;
151;SDS011;68;48.792;9.164;2022-08-30T02:09:25;4.23;;;3.30;;
151;SDS011;68;48.792;9.164;2022-08-30T02:11:52;5.43;;;3.50;;
151;SDS011;68;48.792;9.164;2022-08-30T02:14:18;5.67;;;3.20;;
151;SDS011;68;48.792;9.164;2022-08-30T02:16:47;5.30;;;3.70;;
151;SDS011;68;48.792;9.164;2022-08-30T02:19:13;5.20;;;3.30;;
151;SDS011;68;48.792;9.164;2022-08-30T02:21:40;5.10;;;3.57;;
151;SDS011;68;48.792;9.164;2022-08-30T02:24:07;4.93;;;3.43;;
151;SDS011;68;48.792;9.164;2022-08-30T02:26:34;5.73;;;3.80;;
151;SDS011;68;48.792;9.164;2022-08-30T02:29:01;4.17;;;2.90;;
151;SDS011;68;48.792;9.164;2022-08-30T02:31:29;4.40;;;3.17;;
151;SDS011;68;48.792;9.164;2022-08-30T02:33:57;6.40;;;3.30;;
151;SDS011;68;48.792;9.164;2022-08-30T02:36:24;6.33;;;3.33;;
151;SDS011;68;48.792;9.164;2022-08-30T02:38:51;6.60;;;3.80;;
151;SDS011;68;48.792;9.164;2022-08-30T02:41:18;4.23;;;3.17;;
151;SDS011;68;48.792;9.164;2022-08-30T02:43:47;6.27;;;3.40;;
151;SDS011;68;48.792;9.164;2022-08-30T02:46:14;4.43;;;3.23;;
151;SDS011;68;48.792;9.164;2022-08-30T02:48:42;4.90;;;3.43;;
151;SDS011;68;48.792;9.164;2022-08-30T02:51:12;5.77;;;3.57;;
151;SDS011;68;48.792;9.164;2022-08-30T02:53:39;5.77;;;3.67;;
151;SDS011;68;48.792;9.164;2022-08-30T02:56:07;4.60;;;3.40;;
151;SDS011;68;48.792;9.164;2022-08-30T02:58:35;7.50;;;4.00;;
151;SDS011;68;48.792;9.164;2022-08-30T03:01:02;4.73;;;3.27;;
151;SDS011;68;48.792;9.164;2022-08-30T03:03:30;4.50;;;3.10;;
151;SDS011;68;48.792;9.164;2022-08-30T03:05:57;4.47;;;3.50;;
151;SDS011;68;48.792;9.164;2022-08-30T03:08:25;5.30;;;3.40;;
151;SDS011;68;48.792;9.164;2022-08-30T03:10:52;5.97;;;3.73;;
151;SDS011;68;48.792;9.164;2022-08-30T03:13:20;3.40;;;2.80;;
151;SDS011;68;48.792;9.164;2022-08-30T03:15:47;6.30;;;3.37;;
151;SDS011;68;48.792;9.164;2022-08-30T03:18:15;5.13;;;3.57;;
151;SDS011;68;48.792;9.164;2022-08-30T03:20:42;4.40;;;3.43;;
151;SDS011;68;48.792;9.164;2022-08-30T03:23:09;5.80;;;3.57;;
151;SDS011;68;48.792;9.164;2022-08-30T03:25:37;4.77;;;3.30;;
151;SDS011;68;48.792;9.164;2022-08-30T03:28:04;4.80;;;3.30;;
151;SDS011;68;48.792;9.164;2022-08-30T03:30:31;7.73;;;4.10;;
151;SDS011;68;48.792;9.164;2022-08-30T03:32:59;4.83;;;3.80;;
151;SDS011;68;48.792;9.164;2022-08-30T03:35:27;7.43;;;3.53;;
151;SDS011;68;48.792;9.164;2022-08-30T03:37:55;5.47;;;3.23;;
151;SDS011;68;48.792;9.164;2022-08-30T03:40:23;5.10;;;3.67;;
151;SDS011;68;48.792;9.164;2022-08-30T03:42:51;4.60;;;3.50;;
151;SDS011;68;48.792;9.164;2022-08-30T03:45:18;5.13;;;3.53;;
151;SDS011;68;48.792;9.164;2022-08-30T03:47:45;6.40;;;3.67;;
151;SDS011;68;48.792;9.164;2022-08-30T03:50:12;5.83;;;3.70;;
151;SDS011;68;48.792;9.164;2022-08-30T03:52:40;4.13;;;3.23;;
151;SDS011;68;48.792;9.164;2022-08-30T03:55:09;5.50;;;3.60;;
151;SDS011;68;48.792;9.164;2022-08-30T03:57:36;6.10;;;3.87;;
151;SDS011;68;48.792;9.164;2022-08-30T04:00:06;5.20;;;3.27;;
151;SDS011;68;48.792;9.164;2022-08-30T04:02:34;6.13;;;3.63;;
151;SDS011;68;48.792;9.164;2022-08-30T04:05:01;7.77;;;3.33;;
151;SDS011;68;48.792;9.164;2022-08-30T04:07:30;5.30;;;3.50;;
151;SDS011;68;48.792;9.164;2022-08-30T04:09:57;5.77;;;4.10;;
151;SDS011;68;48.792;9.164;2022-08-30T04:12:24;5.20;;;3.37;;
151;SDS011;68;48.792;9.164;2022-08-30T04:14:51;5.63;;;3.77;;
151;SDS011;68;48.792;9.164;2022-08-30T04:17:28;5.23;;;3.40;;
151;SDS011;68;48.792;9.164;2022-08-30T04:19:59;6.17;;;4.10;;
151;SDS011;68;48.792;9.164;2022-08-30T04:22:31;4.90;;;3.97;;
151;SDS011;68;48.792;9.164;2022-08-30T04:25:05;5.17;;;3.90;;
151;SDS011;68;48.792;9.164;2022-08-30T04:27:35;6.43;;;3.70;;
151;SDS011;68;48.792;9.164;2022-08-30T04:30:03;5.40;;;3.60;;
151;SDS011;68;48.792;9.164;2022-08-30T04:32:34;4.57;;;3.40;;
151;SDS011;68;48.792;9.164;2022-08-30T04:35:02;5.40;;;3.83;;
151;SDS011;68;48.792;9.164;2022-08-30T04:37:30;8.33;;;4.23;;
151;SDS011;68;48.792;9.164;2022-08-30T04:39:57;7.40;;;4.20;;
151;SDS011;68;48.792;9.164;2022-08-30T04:42:25;5.13;;;3.90;;
151;SDS011;68;48.792;9.164;2022-08-30T04:44:55;4.83;;;3.67;;
151;SDS011;68;48.792;9.164;2022-08-30T04:47:22;5.50;;;3.53;;
151;SDS011;68;48.792;9.164;2022-08-30T04:49:50;5.33;;;4.03;;
151;SDS011;68;48.792;9.164;2022-08-30T04:52:17;5.60;;;3.90;;
151;SDS011;68;48.792;9.164;2022-08-30T04:54:44;7.33;;;3.60;;
151;SDS011;68;48.792;9.164;2022-08-30T04:57:11;6.23;;;4.17;;
151;SDS011;68;48.792;9.164;2022-08-30T04:59:38;7.33;;;4.27;;
151;SDS011;68;48.792;9.164;2022-08-30T05:02:05;7.80;;;4.40;;
151;SDS011;68;48.792;9.164;2022-08-30T05:04:32;6.70;;;3.90;;
151;SDS011;68;48.792;9.164;2022-08-30T05:07:00;7.10;;;4.23;;
151;SDS011;68;48.792;9.164;2022-08-30T05:09:27;10.23;;;4.17;;
151;SDS011;68;48.792;9.164;2022-08-30T05:11:53;5.87;;;3.60;;
151;SDS011;68;48.792;9.164;2022-08-30T05:14:20;12.80;;;4.83;;
151;SDS011;68;48.792;9.164;2022-08-30T05:16:47;5.33;;;3.93;;
151;SDS011;68;48.792;9.164;2022-08-30T05:19:14;5.47;;;3.43;;
151;SDS011;68;48.792;9.164;2022-08-30T05:21:41;6.50;;;4.30;;
151;SDS011;68;48.792;9.164;2022-08-30T05:24:09;5.50;;;3.53;;
151;SDS011;68;48.792;9.164;2022-08-30T05:26:36;6.10;;;4.20;;
151;SDS011;68;48.792;9.164;2022-08-30T05:29:04;5.70;;;4.20;;
151;SDS011;68;48.792;9.164;2022-08-30T05:31:31;6.00;;;3.83;;
151;SDS011;68;48.792;9.164;2022-08-30T05:33:59;6.63;;;4.40;;
151;SDS011;68;48.792;9.164;2022-08-30T05:36:27;7.57;;;3.60;;
151;SDS011;68;48.792;9.164;2022-08-30T05:38:55;9.83;;;4.10;;
151;SDS011;68;48.792;9.164;2022-08-30T05:41:24;4.00;;;3.43;;
151;SDS011;68;48.792;9.164;2022-08-30T05:43:51;9.10;;;4.43;;
151;SDS011;68;48.792;9.164;2022-08-30T05:46:19;7.40;;;4.70;;
151;SDS011;68;48.792;9.164;2022-08-30T05:48:46;4.73;;;3.40;;
151;SDS011;68;48.792;9.164;2022-08-30T05:51:14;5.40;;;4.23;;
151;SDS011;68;48.792;9.164;2022-08-30T05:53:43;5.33;;;3.70;;
151;SDS011;68;48.792;9.164;2022-08-30T05:56:11;5.77;;;4.00;;
151;SDS011;68;48.792;9.164;2022-08-30T05:58:42;6.97;;;4.30;;
151;SDS011;68;48.792;9.164;2022-08-30T06:01:17;8.63;;;4.50;;
151;SDS011;68;48.792;9.164;2022-08-30T06:03:45;5.63;;;4.30;;
151;SDS011;68;48.792;9.164;2022-08-30T06:06:12;5.43;;;4.10;;
151;SDS011;68;48.792;9.164;2022-08-30T06:08:39;5.20;;;3.60;;
151;SDS011;68;48.792;9.164;2022-08-30T06:11:09;7.57;;;4.33;;
151;SDS011;68;48.792;9.164;2022-08-30T06:13:36;10.10;;;4.97;;
151;SDS011;68;48.792;9.164;2022-08-30T06:16:06;7.40;;;4.00;;
151;SDS011;68;48.792;9.164;2022-08-30T06:18:35;6.80;;;4.27;;
151;SDS011;68;48.792;9.164;2022-08-30T06:21:02;7.70;;;4.33;;
151;SDS011;68;48.792;9.164;2022-08-30T06:23:29;6.20;;;4.10;;
151;SDS011;68;48.792;9.164;2022-08-30T06:25:56;6.63;;;4.13;;
151;SDS011;68;48.792;9.164;2022-08-30T06:28:28;7.40;;;4.27;;
151;SDS011;68;48.792;9.164;2022-08-30T06:30:56;6.50;;;4.27;;
151;SDS011;68;48.792;9.164;2022-08-30T06:33:24;5.80;;;4.27;;
151;SDS011;68;48.792;9.164;2022-08-30T06:35:51;6.50;;;4.50;;
151;SDS011;68;48.792;9.164;2022-08-30T06:38:20;6.37;;;4.20;;
151;SDS011;68;48.792;9.164;2022-08-30T06:40:47;8.00;;;4.93;;
151;SDS011;68;48.792;9.164;2022-08-30T06:43:15;10.43;;;5.17;;
151;SDS011;68;48.792;9.164;2022-08-30T06:45:41;7.80;;;4.10;;
151;SDS011;68;48.792;9.164;2022-08-30T06:48:08;6.90;;;4.40;;
151;SDS011;68;48.792;9.164;2022-08-30T06:50:36;7.83;;;4.97;;
151;SDS011;68;48.792;9.164;2022-08-30T06:53:05;6.90;;;4.27;;
151;SDS011;68;48.792;9.164;2022-08-30T06:55:33;8.60;;;4.23;;
151;SDS011;68;48.792;9.164;2022-08-30T06:58:00;8.00;;;4.70;;
151;SDS011;68;48.792;9.164;2022-08-30T07:00:28;7.67;;;4.50;;
151;SDS011;68;48.792;9.164;2022-08-30T07:02:55;15.50;;;4.10;;
151;SDS011;68;48.792;9.164;2022-08-30T07:05:22;7.57;;;4.23;;
151;SDS011;68;48.792;9.164;2022-08-30T07:07:50;9.00;;;4.37;;
151;SDS011;68;48.792;9.164;2022-08-30T07:10:18;6.93;;;4.80;;
151;SDS011;68;48.792;9.164;2022-08-30T07:12:46;8.83;;;4.83;;
151;SDS011;68;48.792;9.164;2022-08-30T07:15:13;7.20;;;4.47;;
151;SDS011;68;48.792;9.164;2022-08-30T07:17:40;6.83;;;4.37;;
151;SDS011;68;48.792;9.164;2022-08-30T07:20:25;7.20;;;4.17;;
151;SDS011;68;48.792;9.164;2022-08-30T07:22:53;8.10;;;4.47;;
151;SDS011;68;48.792;9.164;2022-08-30T07:25:20;7.83;;;4.47;;
151;SDS011;68;48.792;9.164;2022-08-30T07:27:46;6.57;;;4.03;;
151;SDS011;68;48.792;9.164;2022-08-30T07:30:15;6.70;;;4.17;;
151;SDS011;68;48.792;9.164;2022-08-30T07:32:43;9.83;;;4.10;;
151;SDS011;68;48.792;9.164;2022-08-30T07:35:10;6.60;;;3.77;;
151;SDS011;68;48.792;9.164;2022-08-30T07:37:37;6.00;;;4.10;;
151;SDS011;68;48.792;9.164;2022-08-30T07:40:05;5.93;;;3.80;;
151;SDS011;68;48.792;9.164;2022-08-30T07:42:33;6.23;;;4.20;;
151;SDS011;68;48.792;9.164;2022-08-30T07:45:00;10.93;;;3.57;;
151;SDS011;68;48.792;9.164;2022-08-30T07:47:28;6.60;;;4.10;;
151;SDS011;68;48.792;9.164;2022-08-30T07:49:55;5.83;;;3.90;;
151;SDS011;68;48.792;9.164;2022-08-30T07:52:25;4.90;;;3.50;;
151;SDS011;68;48.792;9.164;2022-08-30T07:54:53;9.33;;;3.70;;
151;SDS011;68;48.792;9.164;2022-08-30T07:57:21;5.80;;;4.07;;
151;SDS011;68;48.792;9.164;2022-08-30T07:59:48;5.30;;;3.50;;
151;SDS011;68;48.792;9.164;2022-08-30T08:02:16;4.70;;;3.43;;
151;SDS011;68;48.792;9.164;2022-08-30T08:04:43;6.47;;;4.00;;
151;SDS011;68;48.792;9.164;2022-08-30T08:07:12;13.77;;;4.30;;
151;SDS011;68;48.792;9.164;2022-08-30T08:09:39;4.33;;;3.23;;
151;SDS011;68;48.792;9.164;2022-08-30T08:12:06;7.73;;;4.20;;
151;SDS011;68;48.792;9.164;2022-08-30T08:14:34;5.50;;;3.30;;
151;SDS011;68;48.792;9.164;2022-08-30T08:17:01;5.73;;;3.63;;
151;SDS011;68;48.792;9.164;2022-08-30T08:19:29;5.30;;;3.40;;
151;SDS011;68;48.792;9.164;2022-08-30T08:21:56;5.47;;;3.70;;
151;SDS011;68;48.792;9.164;2022-08-30T08:24:24;5.93;;;3.40;;
151;SDS011;68;48.792;9.164;2022-08-30T08:26:51;6.00;;;3.67;;
151;SDS011;68;48.792;9.164;2022-08-30T08:29:18;4.40;;;3.13;;
151;SDS011;68;48.792;9.164;2022-08-30T08:31:47;5.10;;;3.40;;
151;SDS011;68;48.792;9.164;2022-08-30T08:34:15;5.83;;;3.57;;
151;SDS011;68;48.792;9.164;2022-08-30T08:36:43;6.40;;;4.03;;
151;SDS011;68;48.792;9.164;2022-08-30T08:39:12;4.83;;;3.40;;
151;SDS011;68;48.792;9.164;2022-08-30T08:41:41;5.57;;;3.80;;
151;SDS011;68;48.792;9.164;2022-08-30T08:44:21;5.30;;;3.17;;
151;SDS011;68;48.792;9.164;2022-08-30T08:46:59;6.23;;;3.70;;
151;SDS011;68;48.792;9.164;2022-08-30T08:49:32;4.83;;;3.47;;
151;SDS011;68;48.792;9.164;2022-08-30T08:52:01;4.90;;;3.30;;
151;SDS011;68;48.792;9.164;2022-08-30T08:54:48;6.57;;;4.17;;
151;SDS011;68;48.792;9.164;2022-08-30T08:57:20;4.50;;;3.30;;
151;SDS011;68;48.792;9.164;2022-08-30T08:59:47;4.90;;;3.23;;
151;SDS011;68;48.792;9.164;2022-08-30T09:02:21;5.03;;;3.53;;
151;SDS011;68;48.792;9.164;2022-08-30T09:04:49;4.40;;;3.33;;
151;SDS011;68;48.792;9.164;2022-08-30T09:07:20;5.20;;;3.30;;
151;SDS011;68;48.792;9.164;2022-08-30T09:09:49;5.63;;;3.53;;
151;SDS011;68;48.792;9.164;2022-08-30T09:12:16;4.50;;;3.60;;
151;SDS011;68;48.792;9.164;2022-08-30T09:14:44;5.30;;;3.47;;
151;SDS011;68;48.792;9.164;2022-08-30T09:17:13;4.57;;;3.07;;
151;SDS011;68;48.792;9.164;2022-08-30T09:19:45;4.97;;;3.30;;
151;SDS011;68;48.792;9.164;2022-08-30T09:22:23;5.90;;;4.40;;
151;SDS011;68;48.792;9.164;2022-08-30T09:24:58;6.97;;;3.10;;
151;SDS011;68;48.792;9.164;2022-08-30T09:27:28;4.33;;;3.00;;
151;SDS011;68;48.792;9.164;2022-08-30T09:30:00;6.07;;;3.27;;
151;SDS011;68;48.792;9.164;2022-08-30T09:32:34;4.43;;;3.30;;
151;SDS011;68;48.792;9.164;2022-08-30T09:35:07;4.67;;;3.47;;
151;SDS011;68;48.792;9.164;2022-08-30T09:37:45;3.40;;;2.70;;
151;SDS011;68;48.792;9.164;2022-08-30T09:40:20;4.87;;;2.90;;
151;SDS011;68;48.792;9.164;2022-08-30T09:43:01;4.57;;;3.30;;
151;SDS011;68;48.792;9.164;2022-08-30T09:45:32;7.33;;;3.60;;
151;SDS011;68;48.792;9.164;2022-08-30T09:51:14;12.70;;;3.30;;
151;SDS011;68;48.792;9.164;2022-08-30T09:54:05;4.70;;;3.40;;
151;SDS011;68;48.792;9.164;2022-08-30T09:56:38;3.77;;;2.77;;
151;SDS011;68;48.792;9.164;2022-08-30T09:59:19;10.90;;;3.30;;
151;SDS011;68;48.792;9.164;2022-08-30T10:02:03;5.03;;;3.50;;
151;SDS011;68;48.792;9.164;2022-08-30T10:04:43;5.23;;;3.37;;
151;SDS011;68;48.792;9.164;2022-08-30T10:07:16;3.97;;;2.90;;
151;SDS011;68;48.792;9.164;2022-08-30T10:09:51;5.30;;;3.20;;
151;SDS011;68;48.792;9.164;2022-08-30T10:12:27;3.83;;;3.00;;
151;SDS011;68;48.792;9.164;2022-08-30T10:14:59;4.50;;;3.10;;
151;SDS011;68;48.792;9.164;2022-08-30T10:17:33;6.10;;;3.57;;
151;SDS011;68;48.792;9.164;2022-08-30T10:20:12;4.50;;;3.27;;
151;SDS011;68;48.792;9.164;2022-08-30T10:22:45;5.83;;;3.37;;
151;SDS011;68;48.792;9.164;2022-08-30T10:25:19;4.17;;;3.07;;
151;SDS011;68;48.792;9.164;2022-08-30T10:27:50;4.67;;;3.07;;
151;SDS011;68;48.792;9.164;2022-08-30T10:30:20;4.70;;;3.13;;
151;SDS011;68;48.792;9.164;2022-08-30T10:32:49;4.93;;;3.40;;
151;SDS011;68;48.792;9.164;2022-08-30T10:35:21;4.60;;;3.40;;
151;SDS011;68;48.792;9.164;2022-08-30T10:37:51;4.00;;;3.07;;
151;SDS011;68;48.792;9.164;2022-08-30T10:40:24;4.37;;;2.97;;
151;SDS011;68;48.792;9.164;2022-08-30T10:43:14;4.30;;;3.30;;
151;SDS011;68;48.792;9.164;2022-08-30T10:45:48;2.73;;;2.53;;
151;SDS011;68;48.792;9.164;2022-08-30T10:48:19;4.10;;;2.90;;
151;SDS011;68;48.792;9.164;2022-08-30T10:50:50;3.97;;;2.93;;
151;SDS011;68;48.792;9.164;2022-08-30T10:53:21;4.53;;;3.30;;
151;SDS011;68;48.792;9.164;2022-08-30T10:55:55;5.57;;;3.40;;
151;SDS011;68;48.792;9.164;2022-08-30T10:58:27;4.33;;;2.93;;
151;SDS011;68;48.792;9.164;2022-08-30T11:00:59;4.40;;;3.23;;
151;SDS011;68;48.792;9.164;2022-08-30T11:03:59;4.40;;;2.93;;
151;SDS011;68;48.792;9.164;2022-08-30T11:06:52;3.67;;;2.63;;
151;SDS011;68;48.792;9.164;2022-08-30T11:09:29;4.70;;;3.07;;
151;SDS011;68;48.792;9.164;2022-08-30T11:14:54;4.83;;;2.87;;
151;SDS011;68;48.792;9.164;2022-08-30T11:17:23;3.60;;;2.63;;
151;SDS011;68;48.792;9.164;2022-08-30T11:19:53;6.10;;;3.77;;
151;SDS011;68;48.792;9.164;2022-08-30T11:22:23;5.70;;;4.07;;
151;SDS011;68;48.792;9.164;2022-08-30T11:25:09;3.30;;;2.63;;
151;SDS011;68;48.792;9.164;2022-08-30T11:27:46;2.97;;;2.50;;
151;SDS011;68;48.792;9.164;2022-08-30T11:33:27;4.13;;;2.80;;
151;SDS011;68;48.792;9.164;2022-08-30T11:36:10;3.83;;;3.10;;
151;SDS011;68;48.792;9.164;2022-08-30T11:39:04;4.40;;;3.13;;
151;SDS011;68;48.792;9.164;2022-08-30T11:41:35;4.73;;;2.93;;
151;SDS011;68;48.792;9.164;2022-08-30T11:44:25;2.80;;;2.50;;
151;SDS011;68;48.792;9.164;2022-08-30T11:46:55;4.00;;;2.97;;
151;SDS011;68;48.792;9.164;2022-08-30T11:52:23;5.83;;;3.07;;
151;SDS011;68;48.792;9.164;2022-08-30T11:58:06;3.53;;;2.73;;
151;SDS011;68;48.792;9.164;2022-08-30T12:03:42;3.53;;;2.77;;
151;SDS011;68;48.792;9.164;2022-08-30T12:06:09;3.23;;;2.50;;
151;SDS011;68;48.792;9.164;2022-08-30T12:08:39;3.60;;;2.80;;
151;SDS011;68;48.792;9.164;2022-08-30T12:14:46;3.23;;;2.70;;
151;SDS011;68;48.792;9.164;2022-08-30T12:17:22;3.67;;;2.70;;
151;SDS011;68;48.792;9.164;2022-08-30T12:20:14;3.93;;;3.17;;
151;SDS011;68;48.792;9.164;2022-08-30T12:22:47;4.53;;;3.10;;
151;SDS011;68;48.792;9.164;2022-08-30T12:25:16;3.47;;;2.80;;
151;SDS011;68;48.792;9.164;2022-08-30T12:27:46;4.07;;;2.93;;
151;SDS011;68;48.792;9.164;2022-08-30T12:30:13;3.73;;;2.83;;
151;SDS011;68;48.792;9.164;2022-08-30T12:32:50;3.10;;;2.33;;
151;SDS011;68;48.792;9.164;2022-08-30T12:35:19;4.13;;;2.93;;
151;SDS011;68;48.792;9.164;2022-08-30T12:37:54;3.37;;;2.70;;
151;SDS011;68;48.792;9.164;2022-08-30T12:40:23;5.30;;;3.07;;
151;SDS011;68;48.792;9.164;2022-08-30T12:42:51;4.20;;;2.80;;
151;SDS011;68;48.792;9.164;2022-08-30T12:45:21;3.70;;;2.90;;
151;SDS011;68;48.792;9.164;2022-08-30T12:47:52;3.60;;;2.80;;
151;SDS011;68;48.792;9.164;2022-08-30T12:50:23;3.37;;;2.67;;
151;SDS011;68;48.792;9.164;2022-08-30T12:52:55;4.70;;;3.10;;
151;SDS011;68;48.792;9.164;2022-08-30T12:55:26;4.37;;;3.17;;
151;SDS011;68;48.792;9.164;2022-08-30T12:57:56;3.97;;;3.20;;
151;SDS011;68;48.792;9.164;2022-08-30T13:00:26;4.10;;;2.83;;
151;SDS011;68;48.792;9.164;2022-08-30T13:02:58;3.23;;;2.63;;
151;SDS011;68;48.792;9.164;2022-08-30T13:05:31;5.90;;;3.40;;
151;SDS011;68;48.792;9.164;2022-08-30T13:08:14;5.20;;;3.30;;
151;SDS011;68;48.792;9.164;2022-08-30T13:10:50;5.73;;;3.10;;
151;SDS011;68;48.792;9.164;2022-08-30T13:13:30;4.70;;;3.00;;
151;SDS011;68;48.792;9.164;2022-08-30T13:16:08;5.23;;;3.20;;
151;SDS011;68;48.792;9.164;2022-08-30T13:18:47;4.07;;;2.83;;
151;SDS011;68;48.792;9.164;2022-08-30T13:21:24;3.40;;;2.60;;
151;SDS011;68;48.792;9.164;2022-08-30T13:23:56;3.63;;;2.60;;
151;SDS011;68;48.792;9.164;2022-08-30T13:26:24;3.70;;;2.93;;
151;SDS011;68;48.792;9.164;2022-08-30T13:28:52;4.00;;;2.90;;
151;SDS011;68;48.792;9.164;2022-08-30T13:31:21;3.73;;;2.77;;
151;SDS011;68;48.792;9.164;2022-08-30T13:33:49;2.87;;;2.43;;
151;SDS011;68;48.792;9.164;2022-08-30T13:36:17;3.87;;;2.90;;
151;SDS011;68;48.792;9.164;2022-08-30T13:38:45;3.73;;;2.60;;
151;SDS011;68;48.792;9.164;2022-08-30T13:41:12;4.83;;;2.90;;
151;SDS011;68;48.792;9.164;2022-08-30T13:43:39;3.90;;;3.00;;
151;SDS011;68;48.792;9.164;2022-08-30T13:46:06;4.77;;;2.60;;
151;SDS011;68;48.792;9.164;2022-08-30T13:48:35;3.10;;;2.30;;
151;SDS011;68;48.792;9.164;2022-08-30T13:51:03;5.17;;;3.10;;
151;SDS011;68;48.792;9.164;2022-08-30T13:53:33;4.03;;;2.97;;
151;SDS011;68;48.792;9.164;2022-08-30T13:56:03;3.77;;;2.70;;
151;SDS011;68;48.792;9.164;2022-08-30T13:58:30;3.37;;;2.73;;
151;SDS011;68;48.792;9.164;2022-08-30T14:00:57;2.90;;;2.50;;
151;SDS011;68;48.792;9.164;2022-08-30T14:03:24;5.10;;;3.30;;
151;SDS011;68;48.792;9.164;2022-08-30T14:05:51;3.97;;;2.60;;
151;SDS011;68;48.792;9.164;2022-08-30T14:08:20;2.90;;;2.40;;
151;SDS011;68;48.792;9.164;2022-08-30T14:10:51;4.43;;;2.60;;
151;SDS011;68;48.792;9.164;2022-08-30T14:13:18;3.27;;;2.50;;
151;SDS011;68;48.792;9.164;2022-08-30T14:15:45;3.83;;;2.60;;
151;SDS011;68;48.792;9.164;2022-08-30T14:18:13;4.27;;;3.10;;
151;SDS011;68;48.792;9.164;2022-08-30T14:20:40;3.67;;;2.63;;
151;SDS011;68;48.792;9.164;2022-08-30T14:23:07;3.67;;;2.70;;
151;SDS011;68;48.792;9.164;2022-08-30T14:25:35;3.27;;;2.73;;
151;SDS011;68;48.792;9.164;2022-08-30T14:28:02;4.03;;;3.03;;
151;SDS011;68;48.792;9.164;2022-08-30T14:30:29;4.03;;;2.80;;
151;SDS011;68;48.792;9.164;2022-08-30T14:32:56;4.00;;;2.83;;
151;SDS011;68;48.792;9.164;2022-08-30T14:35:23;4.30;;;2.83;;
151;SDS011;68;48.792;9.164;2022-08-30T14:37:49;4.27;;;2.90;;
151;SDS011;68;48.792;9.164;2022-08-30T14:40:17;3.13;;;2.60;;
151;SDS011;68;48.792;9.164;2022-08-30T14:42:45;4.43;;;3.07;;
151;SDS011;68;48.792;9.164;2022-08-30T14:45:12;3.13;;;2.67;;
151;SDS011;68;48.792;9.164;2022-08-30T14:47:39;4.30;;;2.50;;
151;SDS011;68;48.792;9.164;2022-08-30T14:50:06;3.20;;;2.50;;
151;SDS011;68;48.792;9.164;2022-08-30T14:52:34;4.07;;;2.63;;
151;SDS011;68;48.792;9.164;2022-08-30T14:55:02;5.93;;;3.30;;
151;SDS011;68;48.792;9.164;2022-08-30T14:57:30;5.40;;;3.37;;
151;SDS011;68;48.792;9.164;2022-08-30T14:59:59;2.90;;;2.43;;
151;SDS011;68;48.792;9.164;2022-08-30T15:02:25;4.03;;;2.90;;
151;SDS011;68;48.792;9.164;2022-08-30T15:04:52;3.67;;;3.00;;
151;SDS011;68;48.792;9.164;2022-08-30T15:07:19;4.07;;;3.07;;
151;SDS011;68;48.792;9.164;2022-08-30T15:09:46;5.27;;;3.27;;
151;SDS011;68;48.792;9.164;2022-08-30T15:12:13;3.70;;;2.53;;
151;SDS011;68;48.792;9.164;2022-08-30T15:14:40;4.57;;;3.00;;
151;SDS011;68;48.792;9.164;2022-08-30T15:17:08;3.80;;;2.50;;
151;SDS011;68;48.792;9.164;2022-08-30T15:19:37;5.37;;;3.40;;
151;SDS011;68;48.792;9.164;2022-08-30T15:22:04;3.27;;;2.60;;
151;SDS011;68;48.792;9.164;2022-08-30T15:24:33;4.70;;;3.17;;
151;SDS011;68;48.792;9.164;2022-08-30T15:27:00;3.53;;;2.70;;
151;SDS011;68;48.792;9.164;2022-08-30T15:29:27;3.60;;;2.50;;
151;SDS011;68;48.792;9.164;2022-08-30T15:31:54;4.17;;;2.87;;
151;SDS011;68;48.792;9.164;2022-08-30T15:34:23;5.53;;;3.20;;
151;SDS011;68;48.792;9.164;2022-08-30T15:36:50;4.00;;;2.80;;
151;SDS011;68;48.792;9.164;2022-08-30T15:39:17;4.53;;;3.10;;
151;SDS011;68;48.792;9.164;2022-08-30T15:41:45;4.53;;;3.10;;
151;SDS011;68;48.792;9.164;2022-08-30T15:44:13;3.47;;;2.90;;
151;SDS011;68;48.792;9.164;2022-08-30T15:46:42;5.00;;;3.20;;
151;SDS011;68;48.792;9.164;2022-08-30T15:49:11;3.80;;;2.80;;
151;SDS011;68;48.792;9.164;2022-08-30T15:51:41;3.17;;;2.47;;
151;SDS011;68;48.792;9.164;2022-08-30T15:54:08;3.93;;;2.90;;
151;SDS011;68;48.792;9.164;2022-08-30T15:56:36;4.60;;;3.07;;
151;SDS011;68;48.792;9.164;2022-08-30T15:59:03;4.10;;;2.90;;
151;SDS011;68;48.792;9.164;2022-08-30T16:01:30;5.10;;;3.03;;
151;SDS011;68;48.792;9.164;2022-08-30T16:03:57;7.27;;;3.30;;
151;SDS011;68;48.792;9.164;2022-08-30T16:06:25;3.70;;;3.17;;
151;SDS011;68;48.792;9.164;2022-08-30T16:08:55;4.30;;;2.93;;
151;SDS011;68;48.792;9.164;2022-08-30T16:11:22;5.30;;;3.33;;
151;SDS011;68;48.792;9.164;2022-08-30T16:13:50;3.67;;;2.77;;
151;SDS011;68;48.792;9.164;2022-08-30T16:16:18;3.20;;;2.60;;
151;SDS011;68;48.792;9.164;2022-08-30T16:18:46;3.67;;;2.90;;
151;SDS011;68;48.792;9.164;2022-08-30T16:21:14;3.90;;;2.70;;
151;SDS011;68;48.792;9.164;2022-08-30T16:23:44;4.53;;;3.00;;
151;SDS011;68;48.792;9.164;2022-08-30T16:26:13;3.03;;;2.57;;
151;SDS011;68;48.792;9.164;2022-08-30T16:28:43;3.57;;;2.80;;
151;SDS011;68;48.792;9.164;2022-08-30T16:31:10;3.70;;;2.70;;
151;SDS011;68;48.792;9.164;2022-08-30T16:33:38;4.93;;;3.10;;
151;SDS011;68;48.792;9.164;2022-08-30T16:36:05;7.67;;;3.07;;